Time;durP1;ratioP1;P1;durP2;ratioP2;P2;SDS_P1;SDS_P2;PMS_P1;PMS_P2;Temp;Humidity;BMP_temperature;BMP_pressure;BME280_temperature;BME280_humidity;BME280_pressure;Samples;Min_cycle;Max_cycle;Signal;HPM_P1;HPM_P2
2023/02/24 00:03:09;;;;;;;295.23;101.00;;;;;;;;;;5058989;28;20391;-79
2023/02/24 00:05:37;;;;;;;336.10;103.50;;;;;;;;;;5071824;28;20051;-79
2023/02/24 00:08:04;;;;;;;304.13;99.78;;;;;;;;;;5071119;28;20029;-79
2023/02/24 00:10:29;;;;;;;316.00;96.53;;;;;;;;;;5055051;28;20403;-77
2023/02/24 00:12:55;;;;;;;281.02;93.57;;;;;;;;;;5052871;28;20043;-79
2023/02/24 00:15:21;;;;;;;275.50;93.57;;;;;;;;;;5069429;28;20032;-78
2023/02/24 00:17:47;;;;;;;321.98;98.55;;;;;;;;;;5068262;28;20020;-77
2023/02/24 00:20:15;;;;;;;316.65;96.95;;;;;;;;;;5068417;28;20067;-79
2023/02/24 00:22:43;;;;;;;305.60;97.57;;;;;;;;;;5062870;28;20029;-79
2023/02/24 00:25:11;;;;;;;222.27;85.05;;;;;;;;;;5064266;28;20094;-79
2023/02/24 00:27:37;;;;;;;249.45;91.13;;;;;;;;;;5054668;28;20086;-78
2023/02/24 00:30:04;;;;;;;292.95;92.43;;;;;;;;;;5071970;28;20558;-78
2023/02/24 00:32:30;;;;;;;356.85;96.72;;;;;;;;;;5071389;28;20029;-78
2023/02/24 00:34:56;;;;;;;296.77;92.65;;;;;;;;;;5071115;28;20027;-78
2023/02/24 00:37:23;;;;;;;213.68;82.18;;;;;;;;;;5070327;28;20541;-77
2023/02/24 00:39:49;;;;;;;180.15;80.70;;;;;;;;;;5071058;28;20024;-78
2023/02/24 00:42:16;;;;;;;259.30;89.97;;;;;;;;;;5067661;28;20040;-80
2023/02/24 00:44:45;;;;;;;222.38;82.90;;;;;;;;;;5062807;28;20032;-79
2023/02/24 00:47:12;;;;;;;204.20;76.82;;;;;;;;;;5068473;28;20033;-79
2023/02/24 00:49:41;;;;;;;202.55;76.57;;;;;;;;;;5075211;28;20454;-80
2023/02/24 00:52:14;;;;;;;194.50;73.00;;;;;;;;;;5071545;28;20024;-77
2023/02/24 00:54:41;;;;;;;189.55;73.88;;;;;;;;;;5076611;28;20111;-78
2023/02/24 00:57:07;;;;;;;160.57;67.80;;;;;;;;;;5077840;28;20077;-76
2023/02/24 00:59:33;;;;;;;194.25;71.55;;;;;;;;;;5074662;28;20017;-78
2023/02/24 01:01:59;;;;;;;180.48;70.03;;;;;;;;;;5077176;28;20351;-78
2023/02/24 01:04:28;;;;;;;174.13;65.95;;;;;;;;;;5074611;28;20024;-79
2023/02/24 01:07:00;;;;;;;159.73;59.30;;;;;;;;;;5073706;28;20028;-77
2023/02/24 01:09:28;;;;;;;170.90;61.45;;;;;;;;;;5071466;28;20041;-77
2023/02/24 01:14:38;;;;;;;139.48;57.80;;;;;;;;;;5071872;28;20517;-79
2023/02/24 01:17:05;;;;;;;148.82;58.92;;;;;;;;;;5076206;28;20025;-78
2023/02/24 01:19:31;;;;;;;140.18;57.72;;;;;;;;;;5084803;28;20031;-79
2023/02/24 01:21:59;;;;;;;145.38;59.28;;;;;;;;;;5082505;28;20033;-79
2023/02/24 01:24:26;;;;;;;138.00;56.78;;;;;;;;;;5083308;28;20032;-79
2023/02/24 01:26:52;;;;;;;125.05;54.50;;;;;;;;;;5084187;28;20024;-79
2023/02/24 01:29:21;;;;;;;105.60;51.83;;;;;;;;;;5077859;28;20103;-79
2023/02/24 01:31:49;;;;;;;135.70;55.45;;;;;;;;;;5076274;28;20090;-78
2023/02/24 01:34:15;;;;;;;116.75;53.28;;;;;;;;;;5082405;28;20407;-80
2023/02/24 01:36:44;;;;;;;102.38;48.95;;;;;;;;;;5078927;28;20043;-79
2023/02/24 01:39:13;;;;;;;110.30;48.60;;;;;;;;;;5074131;28;20032;-78
2023/02/24 01:41:46;;;;;;;101.25;46.25;;;;;;;;;;5074998;28;20024;-78
2023/02/24 01:44:12;;;;;;;91.95;43.75;;;;;;;;;;5074326;28;20066;-78
2023/02/24 01:46:43;;;;;;;91.05;41.05;;;;;;;;;;5073004;28;20112;-78
2023/02/24 01:49:09;;;;;;;81.83;42.77;;;;;;;;;;5073971;28;20390;-77
2023/02/24 01:51:37;;;;;;;79.43;39.88;;;;;;;;;;5074508;28;20284;-78
2023/02/24 01:54:04;;;;;;;69.88;38.47;;;;;;;;;;5074180;28;20033;-77
2023/02/24 01:56:31;;;;;;;79.28;40.95;;;;;;;;;;5074142;28;20025;-78
2023/02/24 01:58:58;;;;;;;78.55;37.72;;;;;;;;;;5072049;28;20066;-78
2023/02/24 02:01:25;;;;;;;75.38;37.17;;;;;;;;;;5075248;28;20097;-78
2023/02/24 02:03:53;;;;;;;73.63;35.97;;;;;;;;;;5076188;28;20044;-79
2023/02/24 02:06:19;;;;;;;86.32;39.80;;;;;;;;;;5076304;28;20108;-78
2023/02/24 02:08:46;;;;;;;59.40;33.67;;;;;;;;;;5073236;28;20099;-78
2023/02/24 02:11:18;;;;;;;58.75;32.08;;;;;;;;;;5073834;28;20036;-80
2023/02/24 02:13:49;;;;;;;56.03;30.83;;;;;;;;;;5074525;28;20374;-78
2023/02/24 02:16:30;;;;;;;53.72;29.90;;;;;;;;;;5074617;28;20022;-79
2023/02/24 02:19:14;;;;;;;49.58;28.20;;;;;;;;;;5073835;28;20016;-78
2023/02/24 02:22:06;;;;;;;52.50;28.77;;;;;;;;;;5073922;28;20052;-79
2023/02/24 02:24:39;;;;;;;45.83;26.20;;;;;;;;;;5074052;28;20044;-78
2023/02/24 02:27:19;;;;;;;49.60;26.85;;;;;;;;;;5072984;28;20470;-78
2023/02/24 02:29:45;;;;;;;51.30;28.10;;;;;;;;;;5072907;28;20389;-78
2023/02/24 02:32:23;;;;;;;51.35;26.65;;;;;;;;;;5073302;28;20029;-79
2023/02/24 02:34:52;;;;;;;47.10;26.63;;;;;;;;;;5074016;28;20020;-78
2023/02/24 02:37:29;;;;;;;44.60;25.63;;;;;;;;;;5072879;28;20024;-78
2023/02/24 02:40:00;;;;;;;42.72;24.20;;;;;;;;;;5073672;28;20028;-79
2023/02/24 02:42:35;;;;;;;50.58;26.80;;;;;;;;;;5073524;28;20021;-79
2023/02/24 02:45:21;;;;;;;42.05;24.55;;;;;;;;;;5073538;28;20078;-79
2023/02/24 02:47:49;;;;;;;44.75;26.20;;;;;;;;;;5073727;28;20029;-79
2023/02/24 02:50:17;;;;;;;52.45;27.75;;;;;;;;;;5074500;28;20039;-78
2023/02/24 02:52:47;;;;;;;42.95;25.65;;;;;;;;;;5075308;28;20059;-80
2023/02/24 02:55:22;;;;;;;51.45;29.15;;;;;;;;;;5072345;28;20651;-78
2023/02/24 02:57:51;;;;;;;48.33;26.85;;;;;;;;;;5059846;28;20044;-78
2023/02/24 03:00:22;;;;;;;48.83;28.27;;;;;;;;;;5070852;28;20020;-77
2023/02/24 03:02:54;;;;;;;61.80;32.42;;;;;;;;;;5071884;28;20027;-77
2023/02/24 03:05:28;;;;;;;59.40;30.63;;;;;;;;;;5072952;28;20032;-79
2023/02/24 03:07:56;;;;;;;64.07;32.28;;;;;;;;;;5072073;28;20036;-77
2023/02/24 03:10:26;;;;;;;65.35;31.95;;;;;;;;;;5072464;28;20132;-78
2023/02/24 03:12:54;;;;;;;72.38;34.03;;;;;;;;;;5071250;28;20042;-77
2023/02/24 03:15:21;;;;;;;70.57;32.83;;;;;;;;;;5071182;28;20020;-78
2023/02/24 03:17:48;;;;;;;61.22;33.72;;;;;;;;;;5072948;28;20024;-80
2023/02/24 03:20:22;;;;;;;75.57;35.55;;;;;;;;;;5075118;28;20390;-80
2023/02/24 03:23:01;;;;;;;74.18;34.20;;;;;;;;;;5097647;22;20131;-74
2023/02/24 03:25:30;;;;;;;78.22;33.80;;;;;;;;;;5072482;28;20031;-74
2023/02/24 03:28:00;;;;;;;52.45;26.48;;;;;;;;;;5092067;28;20029;-75
2023/02/24 03:30:34;;;;;;;44.22;23.60;;;;;;;;;;5072112;28;20023;-77
2023/02/24 03:33:04;;;;;;;50.25;22.95;;;;;;;;;;5070992;28;20277;-75
2023/02/24 03:35:33;;;;;;;49.03;23.90;;;;;;;;;;5072268;28;20020;-76
2023/02/24 03:38:00;;;;;;;54.60;24.38;;;;;;;;;;5071974;28;20065;-76
2023/02/24 03:40:32;;;;;;;52.85;24.95;;;;;;;;;;5072146;28;20482;-75
2023/02/24 03:43:04;;;;;;;59.72;23.85;;;;;;;;;;5073171;28;20036;-75
2023/02/24 03:45:31;;;;;;;61.28;25.30;;;;;;;;;;5077787;28;20092;-74
2023/02/24 03:47:58;;;;;;;63.05;24.70;;;;;;;;;;5038071;28;20495;-72
2023/02/24 03:50:30;;;;;;;49.42;22.13;;;;;;;;;;5054739;28;20048;-74
2023/02/24 03:53:02;;;;;;;64.30;25.85;;;;;;;;;;5041866;28;20136;-72
2023/02/24 03:55:46;;;;;;;63.53;25.23;;;;;;;;;;5057622;28;20028;-74
2023/02/24 03:58:15;;;;;;;69.05;26.15;;;;;;;;;;5046351;28;20028;-74
2023/02/24 04:00:56;;;;;;;73.85;27.58;;;;;;;;;;5070396;28;20510;-74
2023/02/24 04:03:24;;;;;;;;;;;;;;;;;;5056941;28;20052;-74
2023/02/24 04:06:05;;;;;;;73.90;26.75;;;;;;;;;;5052006;28;19905;-74
2023/02/24 04:08:31;;;;;;;;;;;;;;;;;;5051401;28;20033;-75
2023/02/24 04:11:04;;;;;;;81.72;26.80;;;;;;;;;;5051605;28;19912;-75
2023/02/24 04:13:34;;;;;;;67.43;27.98;;;;;;;;;;5051614;28;20029;-75
2023/02/24 04:16:17;;;;;;;78.85;26.52;;;;;;;;;;5051551;28;20036;-75
2023/02/24 04:18:47;;;;;;;66.05;26.77;;;;;;;;;;5050971;28;20017;-75
2023/02/24 04:21:14;;;;;;;65.95;23.77;;;;;;;;;;5051548;28;20074;-76
2023/02/24 04:23:42;;;;;;;76.05;23.85;;;;;;;;;;5051383;28;20106;-74
2023/02/24 04:26:09;;;;;;;50.85;19.85;;;;;;;;;;5051857;28;20124;-75
2023/02/24 04:28:38;;;;;;;67.85;21.05;;;;;;;;;;5052455;28;20368;-75
2023/02/24 04:31:08;;;;;;;70.47;20.48;;;;;;;;;;5051448;28;20040;-76
2023/02/24 04:33:35;;;;;;;62.28;21.13;;;;;;;;;;5051337;28;20096;-74
2023/02/24 04:36:01;;;;;;;58.53;20.50;;;;;;;;;;5051114;28;20021;-74
2023/02/24 04:38:27;;;;;;;60.40;21.00;;;;;;;;;;5050449;28;20039;-74
2023/02/24 04:40:56;;;;;;;67.43;22.83;;;;;;;;;;5051401;28;20041;-75
2023/02/24 04:43:24;;;;;;;51.53;20.05;;;;;;;;;;5051107;28;20029;-75
2023/02/24 04:45:50;;;;;;;63.40;20.17;;;;;;;;;;5051294;28;20033;-74
2023/02/24 04:48:19;;;;;;;73.55;22.75;;;;;;;;;;5050360;28;20040;-74
2023/02/24 04:50:45;;;;;;;60.42;20.13;;;;;;;;;;5050930;28;20041;-74
2023/02/24 04:53:13;;;;;;;54.45;17.88;;;;;;;;;;5050897;28;20055;-75
2023/02/24 04:55:41;;;;;;;62.90;20.00;;;;;;;;;;5049854;28;20032;-76
2023/02/24 04:58:10;;;;;;;40.85;16.63;;;;;;;;;;5051272;28;20036;-75
2023/02/24 05:00:38;;;;;;;55.47;17.90;;;;;;;;;;5057682;28;20013;-74
2023/02/24 05:03:06;;;;;;;63.75;20.20;;;;;;;;;;5057391;28;20017;-76
2023/02/24 05:05:33;;;;;;;57.95;19.73;;;;;;;;;;5057990;28;20280;-75
2023/02/24 05:08:03;;;;;;;53.70;19.30;;;;;;;;;;5056916;28;20041;-75
2023/02/24 05:10:32;;;;;;;57.92;20.67;;;;;;;;;;5057887;28;20493;-75
2023/02/24 05:12:59;;;;;;;66.30;20.65;;;;;;;;;;5057668;28;20234;-75
2023/02/24 05:15:29;;;;;;;70.38;21.08;;;;;;;;;;5057352;28;20029;-75
2023/02/24 05:17:57;;;;;;;64.38;21.02;;;;;;;;;;5056626;28;20027;-74
2023/02/24 05:23:08;;;;;;;61.00;21.58;;;;;;;;;;5057531;28;20079;-74
2023/02/24 05:25:36;;;;;;;72.40;22.65;;;;;;;;;;5056517;28;20033;-75
2023/02/24 05:28:03;;;;;;;65.00;22.27;;;;;;;;;;5064876;28;20070;-75
2023/02/24 05:30:29;;;;;;;68.00;23.83;;;;;;;;;;5077889;28;20032;-75
2023/02/24 05:32:55;;;;;;;68.38;23.42;;;;;;;;;;5076113;28;20020;-74
2023/02/24 05:35:21;;;;;;;59.05;23.52;;;;;;;;;;5077301;28;20024;-76
2023/02/24 05:37:47;;;;;;;59.95;22.85;;;;;;;;;;5076917;28;20069;-74
2023/02/24 05:40:13;;;;;;;60.10;21.23;;;;;;;;;;5077553;28;20016;-74
2023/02/24 05:42:40;;;;;;;40.85;17.63;;;;;;;;;;5077380;28;20020;-74
2023/02/24 05:45:10;;;;;;;39.40;16.67;;;;;;;;;;5077793;28;20028;-75
2023/02/24 05:47:36;;;;;;;44.15;17.90;;;;;;;;;;5059076;28;20029;-75
2023/02/24 05:50:02;;;;;;;34.15;14.93;;;;;;;;;;5041160;28;20475;-74
2023/02/24 05:52:28;;;;;;;44.92;15.80;;;;;;;;;;5043410;28;20030;-75
2023/02/24 05:54:54;;;;;;;32.65;14.00;;;;;;;;;;5059333;28;20057;-75
2023/02/24 05:57:23;;;;;;;30.83;13.68;;;;;;;;;;5058711;28;20029;-74
2023/02/24 05:59:50;;;;;;;30.35;13.82;;;;;;;;;;5039940;28;20081;-75
2023/02/24 06:02:25;;;;;;;30.27;11.93;;;;;;;;;;5045952;28;20021;-73
2023/02/24 06:04:55;;;;;;;24.10;11.55;;;;;;;;;;5057724;28;20075;-75
2023/02/24 06:07:35;;;;;;;27.02;11.60;;;;;;;;;;5108959;27;20384;-74
2023/02/24 06:10:03;;;;;;;28.65;12.45;;;;;;;;;;5109351;28;20102;-73
2023/02/24 06:12:33;;;;;;;33.78;13.27;;;;;;;;;;5109670;28;20016;-73
2023/02/24 06:14:59;;;;;;;28.13;12.18;;;;;;;;;;5108146;28;20085;-72
2023/02/24 06:17:26;;;;;;;29.42;12.38;;;;;;;;;;5106449;28;20019;-73
2023/02/24 06:22:41;;;;;;;25.70;10.07;;;;;;;;;;5086519;28;20051;-76
2023/02/24 06:25:07;;;;;;;15.45;7.13;;;;;;;;;;5086509;28;20066;-79
2023/02/24 06:27:35;;;;;;;13.63;4.93;;;;;;;;;;5086187;28;20444;-78
2023/02/24 06:30:01;;;;;;;11.40;5.20;;;;;;;;;;5086596;28;20036;-77
2023/02/24 06:32:27;;;;;;;15.70;6.32;;;;;;;;;;5066680;28;20044;-79
2023/02/24 06:34:54;;;;;;;13.07;6.15;;;;;;;;;;5066196;28;20028;-77
2023/02/24 06:37:21;;;;;;;13.40;5.57;;;;;;;;;;5065731;28;20111;-77
2023/02/24 06:39:47;;;;;;;12.02;4.75;;;;;;;;;;5068567;28;20025;-78
2023/02/24 06:42:13;;;;;;;14.05;4.90;;;;;;;;;;5066594;28;20050;-79
2023/02/24 06:44:40;;;;;;;17.10;5.88;;;;;;;;;;5066992;28;20029;-79
2023/02/24 06:47:07;;;;;;;20.13;5.63;;;;;;;;;;5067067;28;20470;-77
2023/02/24 06:49:33;;;;;;;14.70;4.78;;;;;;;;;;5068985;28;20047;-76
2023/02/24 06:51:59;;;;;;;22.13;5.95;;;;;;;;;;5068659;28;20036;-77
2023/02/24 06:54:29;;;;;;;14.93;6.20;;;;;;;;;;5068299;28;20028;-76
2023/02/24 06:56:56;;;;;;;30.20;12.70;;;;;;;;;;5068108;28;20054;-77
2023/02/24 06:59:27;;;;;;;22.60;7.72;;;;;;;;;;5066917;28;20159;-77
2023/02/24 07:01:54;;;;;;;18.10;6.97;;;;;;;;;;5067408;28;20052;-79
2023/02/24 07:04:23;;;;;;;23.95;6.88;;;;;;;;;;5066436;28;20454;-80
2023/02/24 07:06:51;;;;;;;19.23;5.60;;;;;;;;;;5067245;28;20082;-78
2023/02/24 07:09:19;;;;;;;18.23;6.18;;;;;;;;;;5065281;28;20053;-78
2023/02/24 07:11:47;;;;;;;15.32;5.63;;;;;;;;;;5066838;28;20024;-78
2023/02/24 07:14:13;;;;;;;16.65;4.55;;;;;;;;;;5067244;28;20071;-78
2023/02/24 07:16:43;;;;;;;17.38;5.90;;;;;;;;;;5066501;28;20021;-78
2023/02/24 07:19:12;;;;;;;11.68;4.47;;;;;;;;;;5052865;28;20087;-76
2023/02/24 07:21:39;;;;;;;22.63;5.68;;;;;;;;;;5053525;28;20111;-79
2023/02/24 07:24:07;;;;;;;19.60;5.45;;;;;;;;;;5053587;28;20052;-79
2023/02/24 07:26:33;;;;;;;17.17;5.35;;;;;;;;;;5053259;28;20553;-80
2023/02/24 07:29:03;;;;;;;23.85;5.45;;;;;;;;;;5052645;28;20059;-78
2023/02/24 07:31:33;;;;;;;22.25;5.78;;;;;;;;;;5053525;28;20103;-76
2023/02/24 07:34:00;;;;;;;22.27;5.15;;;;;;;;;;5053662;28;20013;-79
2023/02/24 07:36:28;;;;;;;15.40;5.05;;;;;;;;;;5053433;28;20027;-77
2023/02/24 07:38:57;;;;;;;26.40;6.45;;;;;;;;;;5053082;28;20033;-79
2023/02/24 07:41:25;;;;;;;19.92;6.10;;;;;;;;;;5053038;28;20581;-77
2023/02/24 07:43:51;;;;;;;21.10;5.05;;;;;;;;;;5053540;28;20453;-78
2023/02/24 07:46:19;;;;;;;20.63;4.70;;;;;;;;;;5053559;28;20056;-78
2023/02/24 07:48:45;;;;;;;26.38;4.95;;;;;;;;;;5052382;28;20028;-77
2023/02/24 07:51:15;;;;;;;23.23;4.43;;;;;;;;;;5053113;28;20478;-79
2023/02/24 07:53:42;;;;;;;19.52;3.92;;;;;;;;;;5053446;28;20021;-76
2023/02/24 07:56:12;;;;;;;21.80;4.25;;;;;;;;;;5053172;28;20029;-77
2023/02/24 07:58:43;;;;;;;17.20;4.10;;;;;;;;;;5050924;28;20032;-77
2023/02/24 08:01:16;;;;;;;17.85;3.40;;;;;;;;;;5052892;28;20029;-77
2023/02/24 08:03:42;;;;;;;16.90;3.72;;;;;;;;;;5033421;28;20229;-77
2023/02/24 08:06:14;;;;;;;26.00;3.72;;;;;;;;;;5034049;28;20025;-79
2023/02/24 08:09:15;;;;;;;16.67;3.50;;;;;;;;;;5032593;28;20055;-78
2023/02/24 08:11:44;;;;;;;16.17;2.97;;;;;;;;;;5033737;28;20071;-75
2023/02/24 08:14:12;;;;;;;18.55;3.05;;;;;;;;;;5035174;28;20014;-79
2023/02/24 08:16:48;;;;;;;21.40;3.78;;;;;;;;;;5016896;28;20033;-78
2023/02/24 08:19:19;;;;;;;18.00;3.88;;;;;;;;;;5033385;28;20475;-78
2023/02/24 08:21:52;;;;;;;19.42;3.30;;;;;;;;;;5033836;28;20430;-77
2023/02/24 08:24:22;;;;;;;15.75;3.78;;;;;;;;;;5033720;28;20037;-79
2023/02/24 08:27:03;;;;;;;21.20;3.55;;;;;;;;;;5034417;28;20049;-77
2023/02/24 08:29:39;;;;;;;12.25;3.08;;;;;;;;;;5037705;28;20024;-77
2023/02/24 08:32:08;;;;;;;17.73;3.92;;;;;;;;;;5041901;28;20064;-80
2023/02/24 08:34:35;;;;;;;17.75;4.97;;;;;;;;;;5041278;28;20104;-81
2023/02/24 08:37:01;;;;;;;15.13;3.78;;;;;;;;;;5034319;28;20048;-78
2023/02/24 08:39:29;;;;;;;14.55;3.17;;;;;;;;;;5033395;28;20025;-78
2023/02/24 08:41:56;;;;;;;16.38;3.90;;;;;;;;;;5033543;28;20025;-80
2023/02/24 08:44:22;;;;;;;19.70;4.47;;;;;;;;;;5034784;28;20537;-79
2023/02/24 08:46:48;;;;;;;15.30;3.90;;;;;;;;;;5033995;28;20025;-79
2023/02/24 08:49:15;;;;;;;17.30;3.38;;;;;;;;;;5016628;28;20026;-78
2023/02/24 08:51:45;;;;;;;22.80;4.53;;;;;;;;;;5033905;28;20029;-79
2023/02/24 08:54:15;;;;;;;16.70;3.83;;;;;;;;;;5034802;28;20025;-78
2023/02/24 08:56:43;;;;;;;8.57;3.17;;;;;;;;;;5034390;28;20029;-79
2023/02/24 08:59:27;;;;;;;21.50;3.78;;;;;;;;;;5034721;28;20075;-80
2023/02/24 09:02:13;;;;;;;18.60;3.78;;;;;;;;;;5041308;28;20027;-78
2023/02/24 09:04:39;;;;;;;17.58;4.20;;;;;;;;;;5054738;28;20021;-79
2023/02/24 09:07:14;;;;;;;19.33;4.43;;;;;;;;;;5063915;28;20036;-79
2023/02/24 09:09:41;;;;;;;15.00;3.78;;;;;;;;;;5065760;28;20031;-78
2023/02/24 09:12:09;;;;;;;15.85;3.25;;;;;;;;;;5064120;28;20051;-78
2023/02/24 09:14:36;;;;;;;22.80;3.75;;;;;;;;;;5059645;28;20040;-79
2023/02/24 09:17:09;;;;;;;18.77;4.47;;;;;;;;;;5060002;28;20028;-80
2023/02/24 09:20:14;;;;;;;17.38;4.65;;;;;;;;;;5056745;28;20021;-80
2023/02/24 09:22:31;;;;;;;16.13;4.18;;;;;;;;;;5055614;28;20122;-79
2023/02/24 09:25:17;;;;;;;14.50;4.00;;;;;;;;;;5055639;28;20051;-79
2023/02/24 09:27:46;;;;;;;15.88;3.28;;;;;;;;;;5053162;28;20041;-78
2023/02/24 09:33:01;;;;;;;16.88;3.83;;;;;;;;;;5055633;28;20126;-80
2023/02/24 09:35:29;;;;;;;24.08;5.15;;;;;;;;;;5055772;28;20012;-79
2023/02/24 09:37:58;;;;;;;13.68;3.20;;;;;;;;;;5054083;28;20025;-79
2023/02/24 09:40:38;;;;;;;13.45;4.00;;;;;;;;;;5055512;28;20025;-79
2023/02/24 09:43:09;;;;;;;14.10;3.97;;;;;;;;;;5056933;28;20025;-79
2023/02/24 09:45:38;;;;;;;14.50;4.15;;;;;;;;;;5055179;28;20055;-79
2023/02/24 09:48:13;;;;;;;19.75;5.80;;;;;;;;;;5052586;28;20025;-79
2023/02/24 09:50:45;;;;;;;19.80;5.47;;;;;;;;;;5052641;28;20108;-79
2023/02/24 09:53:17;;;;;;;28.25;7.45;;;;;;;;;;5055940;28;20017;-79
2023/02/24 09:56:02;;;;;;;18.17;5.50;;;;;;;;;;5054268;28;20020;-78
2023/02/24 09:58:28;;;;;;;15.30;4.97;;;;;;;;;;5055225;28;20070;-78
2023/02/24 10:01:22;;;;;;;17.00;4.80;;;;;;;;;;5057066;28;20029;-76
2023/02/24 10:04:03;;;;;;;15.68;5.40;;;;;;;;;;5053799;28;20021;-79
2023/02/24 10:06:37;;;;;;;16.58;4.53;;;;;;;;;;5039122;28;20029;-80
2023/02/24 10:09:10;;;;;;;17.27;4.88;;;;;;;;;;5056020;28;20071;-80
2023/02/24 10:11:37;;;;;;;16.27;5.20;;;;;;;;;;5056136;28;20021;-79
2023/02/24 10:14:05;;;;;;;18.92;6.00;;;;;;;;;;5057443;28;20420;-79
2023/02/24 10:16:42;;;;;;;15.45;4.57;;;;;;;;;;5060864;28;20033;-80
2023/02/24 10:19:14;;;;;;;18.55;5.90;;;;;;;;;;5057699;28;20032;-80
2023/02/24 10:21:49;;;;;;;18.95;5.03;;;;;;;;;;5062699;28;20032;-79
2023/02/24 10:24:36;;;;;;;20.27;4.63;;;;;;;;;;5060472;28;20024;-79
2023/02/24 10:27:09;;;;;;;10.77;4.10;;;;;;;;;;5060170;28;20103;-80
2023/02/24 10:29:42;;;;;;;12.07;4.18;;;;;;;;;;5059400;28;20415;-77
2023/02/24 10:32:32;;;;;;;11.57;3.95;;;;;;;;;;5056145;28;20048;-81
2023/02/24 10:34:59;;;;;;;7.60;3.15;;;;;;;;;;5061325;28;20049;-80
2023/02/24 10:37:27;;;;;;;11.98;4.15;;;;;;;;;;5059022;28;20067;-81
2023/02/24 10:40:08;;;;;;;11.43;3.80;;;;;;;;;;5060812;28;20052;-79
2023/02/24 10:42:36;;;;;;;10.80;4.72;;;;;;;;;;5055014;28;20032;-79
2023/02/24 10:45:25;;;;;;;11.95;4.18;;;;;;;;;;5058791;28;20452;-78
2023/02/24 10:47:55;;;;;;;12.52;5.25;;;;;;;;;;5049525;28;20098;-79
2023/02/24 10:50:24;;;;;;;12.88;5.28;;;;;;;;;;5056810;28;20401;-80
2023/02/24 10:58:26;;;;;;;7.82;3.50;;;;;;;;;;5064633;28;20093;-79
2023/02/24 11:03:41;;;;;;;12.13;4.10;;;;;;;;;;5064137;28;20376;-80
2023/02/24 11:06:40;;;;;;;7.78;4.10;;;;;;;;;;5064408;28;20059;-79
2023/02/24 11:17:35;;;;;;;8.07;4.30;;;;;;;;;;5061339;28;20044;-81
2023/02/24 11:20:16;;;;;;;6.03;3.45;;;;;;;;;;5060991;28;20036;-80
2023/02/24 11:22:45;;;;;;;6.95;3.95;;;;;;;;;;5063722;28;20044;-80
2023/02/24 11:25:14;;;;;;;8.00;4.40;;;;;;;;;;5065447;28;20029;-81
2023/02/24 11:27:41;;;;;;;9.40;4.22;;;;;;;;;;5060674;28;20032;-80
2023/02/24 11:30:31;;;;;;;7.30;4.28;;;;;;;;;;5059351;28;20107;-80
2023/02/24 11:33:00;;;;;;;9.73;4.45;;;;;;;;;;5058970;28;20238;-80
2023/02/24 11:35:31;;;;;;;7.20;4.53;;;;;;;;;;5059383;28;20035;-79
2023/02/24 11:38:06;;;;;;;6.28;4.22;;;;;;;;;;5056941;28;20017;-80
2023/02/24 11:40:36;;;;;;;6.30;3.85;;;;;;;;;;5057075;28;20024;-79
2023/02/24 11:43:06;;;;;;;10.43;4.40;;;;;;;;;;5060811;28;20032;-80
2023/02/24 11:45:34;;;;;;;9.20;4.72;;;;;;;;;;5055524;28;20148;-75
2023/02/24 11:48:00;;;;;;;5.22;3.47;;;;;;;;;;5054985;28;20025;-80
2023/02/24 11:50:45;;;;;;;6.35;4.32;;;;;;;;;;5058385;28;20082;-81
2023/02/24 11:53:19;;;;;;;7.10;4.00;;;;;;;;;;5059176;28;20025;-80
2023/02/24 11:55:48;;;;;;;7.10;4.30;;;;;;;;;;5059741;28;20475;-79
2023/02/24 11:58:17;;;;;;;7.72;4.00;;;;;;;;;;5057276;28;20104;-78
2023/02/24 12:00:48;;;;;;;9.27;4.53;;;;;;;;;;5057854;28;20029;-81
2023/02/24 12:03:23;;;;;;;7.50;4.35;;;;;;;;;;5058804;28;20085;-81
2023/02/24 12:05:50;;;;;;;6.90;4.70;;;;;;;;;;5058896;28;20025;-80
2023/02/24 12:08:32;;;;;;;6.85;4.03;;;;;;;;;;5041553;28;20049;-81
2023/02/24 12:11:03;;;;;;;8.20;4.47;;;;;;;;;;5058370;28;20021;-80
2023/02/24 12:13:38;;;;;;;6.57;4.28;;;;;;;;;;5058275;28;20022;-80
2023/02/24 12:16:13;;;;;;;7.90;4.70;;;;;;;;;;5056840;28;20470;-80
2023/02/24 12:18:46;;;;;;;9.52;4.30;;;;;;;;;;5056399;28;20471;-81
2023/02/24 12:21:20;;;;;;;8.48;4.80;;;;;;;;;;5088731;22;20044;-72
2023/02/24 12:23:47;;;;;;;15.05;4.80;;;;;;;;;;5084492;28;20021;-73
2023/02/24 12:26:16;;;;;;;17.00;4.95;;;;;;;;;;5065398;28;20092;-72
2023/02/24 12:28:58;;;;;;;9.48;4.68;;;;;;;;;;5079555;28;20017;-75
2023/02/24 12:31:24;;;;;;;;;;;;;;;;;;5064512;28;20056;-74
2023/02/24 12:33:50;;;;;;;11.38;3.78;;;;;;;;;;5080923;28;19915;-74
2023/02/24 12:36:18;;;;;;;9.18;4.90;;;;;;;;;;5077241;28;20470;-74
2023/02/24 12:38:48;;;;;;;6.85;4.47;;;;;;;;;;5064291;28;20033;-74
2023/02/24 12:41:26;;;;;;;11.85;5.38;;;;;;;;;;5081482;28;20439;-74
2023/02/24 12:44:02;;;;;;;8.55;5.65;;;;;;;;;;5074363;28;20017;-73
2023/02/24 12:46:35;;;;;;;10.63;5.35;;;;;;;;;;5056173;28;20092;-74
2023/02/24 12:49:09;;;;;;;9.52;4.97;;;;;;;;;;5073372;28;20025;-75
2023/02/24 12:51:38;;;;;;;12.07;5.95;;;;;;;;;;5074367;28;20020;-74
2023/02/24 12:54:13;;;;;;;12.80;6.95;;;;;;;;;;5072356;28;20024;-75
2023/02/24 12:56:39;;;;;;;12.07;6.15;;;;;;;;;;5054452;28;20056;-74
2023/02/24 12:59:06;;;;;;;10.57;6.35;;;;;;;;;;5071752;28;20535;-74
2023/02/24 13:01:35;;;;;;;12.55;6.35;;;;;;;;;;5072312;28;20028;-75
2023/02/24 13:04:08;;;;;;;12.48;6.30;;;;;;;;;;5072540;28;20457;-74
2023/02/24 13:06:40;;;;;;;10.25;6.22;;;;;;;;;;5071407;28;20028;-76
2023/02/24 13:09:24;;;;;;;13.98;6.30;;;;;;;;;;5069676;28;20012;-74
2023/02/24 13:12:01;;;;;;;11.80;6.38;;;;;;;;;;5071484;28;20048;-74
2023/02/24 13:14:30;;;;;;;14.15;6.95;;;;;;;;;;5069502;28;20021;-73
2023/02/24 13:17:16;;;;;;;13.60;6.57;;;;;;;;;;5077743;28;20504;-74
2023/02/24 13:19:43;;;;;;;14.82;7.13;;;;;;;;;;5091091;28;20036;-75
2023/02/24 13:22:12;;;;;;;15.90;7.15;;;;;;;;;;5087753;28;20037;-74
2023/02/24 13:24:40;;;;;;;12.65;7.15;;;;;;;;;;5054045;28;20025;-75
2023/02/24 13:27:12;;;;;;;14.95;7.43;;;;;;;;;;5071160;28;20086;-75
2023/02/24 13:29:57;;;;;;;11.15;6.93;;;;;;;;;;5071908;28;20146;-73
2023/02/24 13:32:28;;;;;;;11.65;6.35;;;;;;;;;;5071530;28;20425;-74
2023/02/24 13:34:54;;;;;;;;;;;;;;;;;;5092156;28;20024;-76
2023/02/24 13:37:33;;;;;;;12.30;6.95;;;;;;;;;;5071359;28;19904;-74
2023/02/24 13:39:59;;;;;;;11.98;7.43;;;;;;;;;;5090634;28;20020;-75
2023/02/24 13:42:29;;;;;;;11.82;7.10;;;;;;;;;;5072796;28;20428;-74
2023/02/24 13:45:05;;;;;;;12.82;6.78;;;;;;;;;;5091514;28;20024;-74
2023/02/24 13:47:41;;;;;;;14.57;7.55;;;;;;;;;;5070779;28;20401;-73
2023/02/24 13:50:19;;;;;;;8.75;6.07;;;;;;;;;;5091647;28;20445;-74
2023/02/24 13:52:45;;;;;;;12.38;7.05;;;;;;;;;;5091108;28;20489;-74
2023/02/24 13:55:20;;;;;;;11.57;7.53;;;;;;;;;;5070217;28;20035;-75
2023/02/24 13:57:49;;;;;;;10.43;6.80;;;;;;;;;;5072326;28;20474;-74
2023/02/24 14:00:20;;;;;;;14.35;8.48;;;;;;;;;;5063104;28;20024;-75
2023/02/24 14:02:46;;;;;;;;;;;;;;;;;;5091017;28;20040;-74
2023/02/24 14:05:19;;;;;;;13.73;7.43;;;;;;;;;;5072736;28;19974;-74
2023/02/24 14:07:47;;;;;;;13.52;8.05;;;;;;;;;;5090351;28;20028;-74
2023/02/24 14:10:17;;;;;;;13.27;7.20;;;;;;;;;;5090928;28;20024;-75
2023/02/24 14:12:44;;;;;;;10.10;6.78;;;;;;;;;;5072600;28;20017;-76
2023/02/24 14:15:12;;;;;;;11.90;7.22;;;;;;;;;;5073194;28;20028;-74
2023/02/24 14:17:38;;;;;;;12.70;7.82;;;;;;;;;;5091132;28;20027;-74
2023/02/24 14:20:11;;;;;;;15.07;8.70;;;;;;;;;;5091634;28;20031;-73
2023/02/24 14:22:54;;;;;;;19.15;9.07;;;;;;;;;;5091240;28;20514;-74
2023/02/24 14:25:22;;;;;;;15.95;8.00;;;;;;;;;;5091029;28;20514;-75
2023/02/24 14:27:50;;;;;;;17.08;8.73;;;;;;;;;;5092025;28;20047;-74
2023/02/24 14:30:22;;;;;;;14.40;9.23;;;;;;;;;;5095665;28;20024;-76
2023/02/24 14:32:48;;;;;;;20.52;9.95;;;;;;;;;;5095447;28;20043;-75
2023/02/24 14:35:25;;;;;;;15.38;8.90;;;;;;;;;;5095869;28;20016;-73
2023/02/24 14:37:51;;;;;;;19.17;9.27;;;;;;;;;;5078524;28;20020;-74
2023/02/24 14:40:20;;;;;;;16.83;9.48;;;;;;;;;;5100017;28;20028;-74
2023/02/24 14:42:47;;;;;;;14.13;8.95;;;;;;;;;;5084062;28;20432;-75
2023/02/24 14:45:17;;;;;;;16.25;8.57;;;;;;;;;;5086009;28;20095;-75
2023/02/24 14:47:44;;;;;;;18.27;10.02;;;;;;;;;;5096654;28;20058;-74
2023/02/24 14:50:17;;;;;;;19.27;10.15;;;;;;;;;;5075653;28;20024;-74
2023/02/24 14:52:47;;;;;;;18.45;9.55;;;;;;;;;;5067576;28;20123;-74
2023/02/24 14:55:25;;;;;;;19.52;10.32;;;;;;;;;;5065403;28;20427;-74
2023/02/24 14:57:55;;;;;;;16.58;10.10;;;;;;;;;;5055880;28;20032;-76
2023/02/24 15:00:35;;;;;;;21.60;10.63;;;;;;;;;;5053226;28;20161;-78
2023/02/24 15:03:01;;;;;;;16.05;9.55;;;;;;;;;;5075299;28;20270;-76
2023/02/24 15:05:27;;;;;;;17.73;9.77;;;;;;;;;;5070739;28;20035;-76
2023/02/24 15:07:53;;;;;;;19.50;11.30;;;;;;;;;;5073396;28;20040;-75
2023/02/24 15:10:24;;;;;;;19.20;10.23;;;;;;;;;;5056216;28;20494;-75
2023/02/24 15:12:53;;;;;;;16.70;9.90;;;;;;;;;;5074522;28;20025;-75
2023/02/24 15:15:27;;;;;;;15.32;9.07;;;;;;;;;;5074661;28;20020;-76